Time;durP1;ratioP1;P1;durP2;ratioP2;P2;SDS_P1;SDS_P2;PMS_P1;PMS_P2;Temp;Humidity;BMP_temperature;BMP_pressure;BME280_temperature;BME280_humidity;BME280_pressure;Samples;Min_cycle;Max_cycle;Signal;HPM_P1;HPM_P2
2021/04/12 00:00:21;;;;;;;3.90;1.92;;;20.60;33.20;;;;;;4917375;29;20605;-72
2021/04/12 00:02:53;;;;;;;3.05;2.00;;;20.60;33.10;;;;;;4929169;28;20041;-72
2021/04/12 00:05:19;;;;;;;3.42;2.15;;;20.60;33.20;;;;;;4987897;28;20063;-72
2021/04/12 00:08:06;;;;;;;3.53;2.00;;;20.60;33.10;;;;;;4988588;28;20427;-73
2021/04/12 00:11:09;;;;;;;2.67;1.90;;;20.60;33.20;;;;;;4991775;28;20030;-72
2021/04/12 00:13:54;;;;;;;5.20;2.15;;;20.60;33.10;;;;;;4988449;28;20053;-72
2021/04/12 00:16:27;;;;;;;4.20;2.45;;;20.60;33.10;;;;;;4974687;28;20022;-72
2021/04/12 00:19:19;;;;;;;4.30;1.77;;;20.50;33.20;;;;;;4973294;28;20030;-72
2021/04/12 00:22:05;;;;;;;3.58;2.22;;;20.50;33.10;;;;;;4975479;28;20018;-72
2021/04/12 00:24:33;;;;;;;;;;;20.50;33.20;;;;;;4969228;28;20037;-73
2021/04/12 00:27:12;;;;;;;2.72;2.00;;;20.50;33.30;;;;;;5010238;28;19909;-72
2021/04/12 00:29:59;;;;;;;3.90;1.88;;;20.50;33.20;;;;;;4979667;28;20073;-73
2021/04/12 00:32:28;;;;;;;2.65;1.75;;;20.40;33.20;;;;;;4968746;28;20089;-72
2021/04/12 00:35:02;;;;;;;4.63;1.75;;;20.40;33.20;;;;;;4990685;28;20483;-73
2021/04/12 00:37:36;;;;;;;3.30;1.90;;;20.40;33.20;;;;;;4995009;28;20477;-72
2021/04/12 00:40:10;;;;;;;1.80;1.70;;;20.40;33.30;;;;;;4985860;28;20450;-72
2021/04/12 00:42:38;;;;;;;3.92;2.05;;;20.40;33.30;;;;;;4985796;28;20026;-72
2021/04/12 00:45:42;;;;;;;4.00;1.98;;;20.40;33.30;;;;;;4981578;28;20045;-72
2021/04/12 00:48:17;;;;;;;4.80;2.10;;;20.40;33.40;;;;;;4990375;28;20128;-73
2021/04/12 00:51:11;;;;;;;3.15;1.88;;;20.30;33.30;;;;;;4966654;28;20023;-72
2021/04/12 00:53:50;;;;;;;4.05;1.73;;;20.30;33.40;;;;;;5008310;28;20045;-72
2021/04/12 00:56:21;;;;;;;4.32;1.90;;;20.30;33.30;;;;;;4979818;28;20026;-72
2021/04/12 00:59:08;;;;;;;4.47;1.73;;;20.30;33.30;;;;;;4999996;28;20041;-72
2021/04/12 01:01:46;;;;;;;3.83;2.03;;;20.30;33.40;;;;;;4988687;28;20062;-72
2021/04/12 01:04:39;;;;;;;3.53;1.80;;;20.30;33.40;;;;;;4984180;28;20035;-73
2021/04/12 01:07:26;;;;;;;4.07;1.75;;;20.30;33.40;;;;;;4983077;28;20022;-72
2021/04/12 01:10:13;;;;;;;3.35;1.75;;;20.30;33.40;;;;;;4973327;28;20026;-72
2021/04/12 01:13:16;;;;;;;3.60;1.70;;;20.20;33.30;;;;;;4985305;28;20084;-72
2021/04/12 01:16:00;;;;;;;4.35;1.67;;;20.20;33.30;;;;;;4987677;28;20039;-72
2021/04/12 01:22:09;;;;;;;3.10;1.60;;;20.20;33.20;;;;;;4988701;28;20076;-72
2021/04/12 01:25:12;;;;;;;6.63;2.13;;;20.20;33.30;;;;;;4976407;28;20085;-73
2021/04/12 01:27:47;;;;;;;4.50;1.80;;;20.20;33.20;;;;;;4987032;28;20047;-72
2021/04/12 01:30:43;;;;;;;2.53;1.70;;;20.20;33.20;;;;;;4992893;28;20031;-78
2021/04/12 01:33:28;;;;;;;3.80;1.67;;;20.20;33.10;;;;;;4969466;28;20388;-78
2021/04/12 01:36:28;;;;;;;4.82;1.73;;;20.20;33.10;;;;;;4988867;28;20019;-76
2021/04/12 01:39:06;;;;;;;5.00;1.83;;;20.20;33.10;;;;;;4903570;29;20061;-78
2021/04/12 01:41:47;;;;;;;2.60;1.40;;;20.30;33.70;;;;;;4914425;29;20048;-78
2021/04/12 01:44:18;;;;;;;4.45;1.58;;;20.20;33.10;;;;;;4914262;29;20043;-76
2021/04/12 01:47:09;;;;;;;3.28;1.50;;;20.20;33.00;;;;;;4900594;29;20063;-72
2021/04/12 01:50:00;;;;;;;3.75;1.63;;;20.20;33.00;;;;;;4896618;29;20044;-77
2021/04/12 01:52:59;;;;;;;1.70;1.52;;;20.20;33.00;;;;;;4891519;29;20050;-78
2021/04/12 01:56:00;;;;;;;3.22;1.95;;;20.20;33.00;;;;;;4881487;29;20042;-77
2021/04/12 01:58:55;;;;;;;2.72;1.20;;;20.20;33.00;;;;;;4884699;29;20108;-78
2021/04/12 02:01:44;;;;;;;3.58;1.60;;;20.20;33.00;;;;;;4894607;29;20039;-78
2021/04/12 02:04:36;;;;;;;1.95;1.27;;;20.20;33.00;;;;;;4893239;29;20064;-78
2021/04/12 02:07:20;;;;;;;3.05;1.40;;;20.20;33.00;;;;;;4904244;29;20056;-78
2021/04/12 02:10:12;;;;;;;3.20;1.55;;;20.20;33.00;;;;;;4899368;29;20067;-78
2021/04/12 02:12:58;;;;;;;1.25;1.15;;;20.10;33.00;;;;;;4900328;29;20515;-77
2021/04/12 02:15:36;;;;;;;2.55;1.63;;;20.10;33.00;;;;;;4947869;28;20038;-73
2021/04/12 02:18:22;;;;;;;6.82;1.92;;;20.10;32.90;;;;;;4992791;28;20113;-72
2021/04/12 02:20:58;;;;;;;5.15;1.88;;;20.10;32.90;;;;;;4976141;28;20391;-72
2021/04/12 02:23:30;;;;;;;2.92;1.60;;;20.10;32.90;;;;;;4976478;28;20125;-72
2021/04/12 02:26:38;;;;;;;2.88;1.73;;;20.10;33.00;;;;;;4974434;28;20030;-72
2021/04/12 02:29:31;;;;;;;3.03;1.60;;;20.10;33.00;;;;;;4877260;29;20425;-72
2021/04/12 02:32:08;;;;;;;3.78;1.40;;;20.10;33.00;;;;;;4884558;29;20116;-72
2021/04/12 02:35:03;;;;;;;5.72;1.50;;;20.00;32.90;;;;;;4896698;29;20040;-72
2021/04/12 02:38:00;;;;;;;2.97;1.60;;;20.00;32.90;;;;;;4885831;29;20059;-72
2021/04/12 02:40:28;;;;;;;3.13;1.50;;;20.00;32.90;;;;;;4880791;29;20087;-72
2021/04/12 02:43:05;;;;;;;2.35;1.20;;;20.00;33.00;;;;;;4898937;29;20207;-71
2021/04/12 02:45:30;;;;;;;4.75;1.50;;;20.00;33.00;;;;;;4882320;29;20048;-72
2021/04/12 02:48:05;;;;;;;2.45;1.35;;;20.00;32.90;;;;;;4893748;29;20044;-72
2021/04/12 02:51:11;;;;;;;3.13;1.42;;;20.00;32.90;;;;;;4875981;29;20029;-72
2021/04/12 02:54:00;;;;;;;1.65;1.30;;;19.90;32.90;;;;;;4897599;29;20048;-72
2021/04/12 02:57:02;;;;;;;1.25;1.20;;;19.90;33.00;;;;;;4888516;29;20061;-72
2021/04/12 02:59:33;;;;;;;2.60;1.67;;;19.90;33.00;;;;;;4890535;29;20036;-72
2021/04/12 03:02:26;;;;;;;3.63;1.85;;;19.90;33.00;;;;;;4880154;29;20047;-71
2021/04/12 03:04:51;;;;;;;1.50;1.40;;;19.90;33.00;;;;;;4906676;28;20050;-72
2021/04/12 03:07:55;;;;;;;3.30;1.77;;;19.80;33.00;;;;;;4994156;28;20019;-72
2021/04/12 03:10:39;;;;;;;2.38;1.38;;;19.90;33.00;;;;;;4918105;29;20044;-72
2021/04/12 03:13:37;;;;;;;5.70;1.70;;;19.90;33.10;;;;;;4898626;29;20037;-72
2021/04/12 03:16:27;;;;;;;4.00;1.60;;;19.90;33.00;;;;;;4907649;29;20051;-72
2021/04/12 03:19:20;;;;;;;4.20;1.80;;;19.90;32.90;;;;;;4910768;29;20500;-72
2021/04/12 03:22:32;;;;;;;1.58;1.40;;;19.90;32.90;;;;;;4917389;29;20043;-72
2021/04/12 03:25:40;;;;;;;2.15;1.33;;;19.90;32.90;;;;;;4907353;29;20032;-71
2021/04/12 03:28:27;;;;;;;8.10;1.50;;;19.90;33.00;;;;;;4916326;29;20040;-71
2021/04/12 03:31:14;;;;;;;1.55;1.38;;;19.90;32.80;;;;;;4919013;29;20034;-71
2021/04/12 03:33:48;;;;;;;3.33;1.48;;;19.90;32.80;;;;;;4890652;28;20051;-72
2021/04/12 03:36:31;;;;;;;2.30;1.10;;;19.90;32.80;;;;;;4924154;29;20508;-71
2021/04/12 03:39:02;;;;;;;2.40;1.73;;;19.80;32.80;;;;;;4905488;29;20512;-72
2021/04/12 03:41:46;;;;;;;2.25;1.67;;;19.90;32.80;;;;;;4891030;29;20043;-72
2021/04/12 03:44:15;;;;;;;3.00;1.60;;;19.80;32.80;;;;;;4915474;29;20040;-72
2021/04/12 03:46:49;;;;;;;2.90;1.65;;;19.80;32.80;;;;;;4918798;28;20096;-72
2021/04/12 03:49:45;;;;;;;1.50;1.40;;;19.90;32.90;;;;;;4989898;28;20038;-72
2021/04/12 03:52:26;;;;;;;2.55;1.70;;;19.80;32.90;;;;;;4972231;28;20438;-72
2021/04/12 03:55:21;;;;;;;3.88;1.85;;;19.80;32.90;;;;;;4997236;28;20032;-73
2021/04/12 03:58:25;;;;;;;2.92;1.55;;;19.80;32.90;;;;;;5002248;28;20541;-72
2021/04/12 04:01:08;;;;;;;2.45;1.20;;;19.80;32.90;;;;;;4970039;28;20125;-72
2021/04/12 04:04:03;;;;;;;2.10;1.13;;;19.80;32.90;;;;;;4989423;28;20045;-72
2021/04/12 04:07:11;;;;;;;0.00;0.00;;;19.80;33.00;;;;;;4977235;28;20456;-72
2021/04/12 04:09:42;;;;;;;2.08;1.75;;;19.80;32.90;;;;;;4911715;29;20040;-72
2021/04/12 04:12:45;;;;;;;0.10;0.00;;;19.70;32.90;;;;;;4895959;29;20044;-72
2021/04/12 04:18:53;;;;;;;4.70;1.73;;;19.70;32.90;;;;;;4911754;29;20116;-72
2021/04/12 04:21:18;;;;;;;0.20;0.20;;;19.70;32.90;;;;;;4888510;29;20057;-72
2021/04/12 04:24:03;;;;;;;2.70;1.77;;;19.70;32.90;;;;;;4912093;29;20036;-79
2021/04/12 04:26:53;;;;;;;0.10;0.10;;;19.70;33.00;;;;;;4916535;29;20039;-79
2021/04/12 04:29:27;;;;;;;0.57;0.20;;;19.60;32.90;;;;;;4918224;29;20032;-79
2021/04/12 04:32:26;;;;;;;1.67;1.38;;;19.70;33.00;;;;;;4905143;29;20532;-79
2021/04/12 04:34:58;;;;;;;2.33;0.63;;;19.70;33.10;;;;;;4929510;29;20079;-78
2021/04/12 04:37:41;;;;;;;0.35;0.13;;;19.70;33.00;;;;;;4914595;29;20504;-79
2021/04/12 04:40:34;;;;;;;1.50;1.40;;;19.60;33.00;;;;;;4883896;29;20127;-81
2021/04/12 04:43:25;;;;;;;0.00;0.00;;;19.60;33.00;;;;;;4896224;29;20525;-81
2021/04/12 04:45:56;;;;;;;2.40;2.00;;;19.60;33.00;;;;;;4923259;28;20038;-82
2021/04/12 04:48:59;;;;;;;1.48;0.40;;;19.60;33.00;;;;;;4983691;28;20407;-82
2021/04/12 04:51:43;;;;;;;3.10;0.20;;;19.60;33.00;;;;;;4928620;29;20032;-72
2021/04/12 04:54:33;;;;;;;2.55;1.73;;;19.60;33.00;;;;;;4924054;29;20047;-72
2021/04/12 04:57:13;;;;;;;0.73;0.15;;;19.60;33.10;;;;;;4929948;29;20043;-72
2021/04/12 05:00:09;;;;;;;0.00;0.00;;;19.60;33.00;;;;;;4918358;29;20456;-72
2021/04/12 05:02:39;;;;;;;1.50;1.30;;;19.50;33.00;;;;;;4913056;29;20019;-72
2021/04/12 05:05:16;;;;;;;0.17;0.05;;;19.50;33.00;;;;;;4915147;29;20127;-72
2021/04/12 05:07:53;;;;;;;0.00;0.00;;;19.50;33.10;;;;;;4925325;29;20036;-72
2021/04/12 05:10:53;;;;;;;1.80;1.35;;;19.50;33.20;;;;;;4931156;29;20115;-72
2021/04/12 05:17:17;;;;;;;2.83;1.58;;;19.60;33.40;;;;;;4920833;29;20087;-73
2021/04/12 05:19:57;;;;;;;3.50;1.48;;;19.60;33.50;;;;;;4929154;29;20024;-79
2021/04/12 05:22:40;;;;;;;0.17;0.08;;;19.70;33.40;;;;;;4917031;29;20035;-77
2021/04/12 05:25:32;;;;;;;3.60;2.08;;;19.70;33.30;;;;;;4927813;29;20288;-78
2021/04/12 05:28:06;;;;;;;1.55;1.33;;;19.80;33.30;;;;;;4966647;28;20049;-79
2021/04/12 05:31:12;;;;;;;0.00;0.00;;;19.90;33.30;;;;;;4991789;28;20025;-78
2021/04/12 05:33:55;;;;;;;0.13;0.13;;;20.00;33.30;;;;;;4935293;29;20519;-75
2021/04/12 05:36:47;;;;;;;1.42;1.33;;;20.10;33.20;;;;;;4917434;29;20036;-76
2021/04/12 05:39:40;;;;;;;0.00;0.00;;;20.10;33.10;;;;;;4921603;29;20188;-76
2021/04/12 05:42:27;;;;;;;0.32;0.10;;;20.30;33.00;;;;;;4927372;29;20590;-76
2021/04/12 05:45:06;;;;;;;0.70;0.52;;;20.40;33.00;;;;;;4921393;29;20043;-78
2021/04/12 05:47:44;;;;;;;0.00;0.00;;;20.50;33.00;;;;;;4906873;29;20039;-76
2021/04/12 05:50:51;;;;;;;0.52;0.30;;;20.50;32.70;;;;;;4922200;29;20042;-79
2021/04/12 05:53:42;;;;;;;0.45;0.38;;;20.60;32.50;;;;;;4882117;29;20529;-72
2021/04/12 05:56:22;;;;;;;0.20;0.20;;;20.70;32.50;;;;;;4881940;29;20040;-73
2021/04/12 05:59:12;;;;;;;0.10;0.10;;;20.70;32.60;;;;;;4885260;29;20081;-72
2021/04/12 06:02:11;;;;;;;0.10;0.10;;;20.80;32.40;;;;;;4872108;29;20041;-72
2021/04/12 06:04:55;;;;;;;0.10;0.10;;;20.80;32.40;;;;;;4874520;29;20049;-73
2021/04/12 06:07:39;;;;;;;0.20;0.20;;;20.90;32.40;;;;;;4891608;29;20564;-73
2021/04/12 06:10:16;;;;;;;0.10;0.10;;;20.90;32.40;;;;;;4915027;29;20040;-72
2021/04/12 06:12:58;;;;;;;0.10;0.00;;;20.90;32.40;;;;;;4933825;28;20043;-72
2021/04/12 06:15:33;;;;;;;0.32;0.15;;;20.90;32.50;;;;;;4925597;29;20084;-72
2021/04/12 06:18:26;;;;;;;0.63;0.30;;;20.90;32.30;;;;;;4943494;28;20039;-72
2021/04/12 06:21:00;;;;;;;0.20;0.10;;;20.90;32.50;;;;;;4943917;28;20031;-72
2021/04/12 06:23:58;;;;;;;0.65;0.10;;;21.00;32.50;;;;;;4938870;28;20043;-72
2021/04/12 06:26:48;;;;;;;0.10;0.10;;;21.00;32.50;;;;;;4913853;28;20110;-71
2021/04/12 06:29:47;;;;;;;1.63;0.70;;;21.00;32.50;;;;;;4953884;28;20121;-72
2021/04/12 06:32:40;;;;;;;0.45;0.35;;;21.00;32.50;;;;;;4985740;28;20506;-73
2021/04/12 06:35:31;;;;;;;0.60;0.10;;;21.00;32.70;;;;;;4985382;28;20030;-72
2021/04/12 06:38:34;;;;;;;0.10;0.10;;;21.00;32.50;;;;;;4966552;28;20042;-73
2021/04/12 06:41:15;;;;;;;1.13;0.65;;;21.00;32.60;;;;;;4983929;28;20030;-72
2021/04/12 06:44:01;;;;;;;1.55;0.10;;;21.00;32.70;;;;;;4986295;28;20042;-73
2021/04/12 06:46:59;;;;;;;0.45;0.10;;;21.00;32.70;;;;;;4992162;28;20034;-72
2021/04/12 06:50:05;;;;;;;0.47;0.20;;;21.00;32.70;;;;;;4992133;28;20367;-72
2021/04/12 06:52:54;;;;;;;0.08;0.08;;;21.10;32.80;;;;;;4972377;28;20021;-76
2021/04/12 06:55:20;;;;;;;0.20;0.20;;;21.00;32.80;;;;;;4974022;28;20038;-75
2021/04/12 06:58:07;;;;;;;0.10;0.10;;;21.00;32.70;;;;;;4985994;28;20035;-76
2021/04/12 07:01:13;;;;;;;0.40;0.10;;;21.00;32.80;;;;;;4989440;28;20141;-76
2021/04/12 07:03:59;;;;;;;1.88;0.10;;;21.00;32.80;;;;;;4992226;28;20034;-76
2021/04/12 07:06:34;;;;;;;0.13;0.13;;;21.00;32.90;;;;;;4990779;28;20375;-76
2021/04/12 07:09:34;;;;;;;0.00;0.00;;;21.00;32.90;;;;;;4987035;28;20114;-76
2021/04/12 07:12:32;;;;;;;0.00;0.00;;;21.00;33.00;;;;;;4994993;28;20125;-76
2021/04/12 07:15:35;;;;;;;0.15;0.15;;;21.00;33.10;;;;;;4975515;28;20461;-76
2021/04/12 07:18:38;;;;;;;0.00;0.00;;;21.00;33.00;;;;;;4984597;28;20026;-76
2021/04/12 07:24:50;;;;;;;0.90;0.50;;;21.00;33.10;;;;;;4992916;28;20045;-76
2021/04/12 07:27:50;;;;;;;0.00;0.00;;;20.90;33.10;;;;;;4974489;28;20051;-76
2021/04/12 07:30:42;;;;;;;1.00;0.10;;;21.00;33.20;;;;;;4983656;28;20018;-76
2021/04/12 07:33:38;;;;;;;0.55;0.10;;;21.00;33.30;;;;;;4988970;28;20117;-76
2021/04/12 07:36:34;;;;;;;0.38;0.20;;;20.90;33.30;;;;;;4970111;28;20029;-76
2021/04/12 07:39:30;;;;;;;0.10;0.10;;;20.90;33.20;;;;;;4993864;28;20072;-76
2021/04/12 07:42:35;;;;;;;0.35;0.08;;;21.00;33.40;;;;;;4994384;28;20023;-76
2021/04/12 07:45:17;;;;;;;0.30;0.30;;;21.00;33.40;;;;;;4990253;28;20046;-76
2021/04/12 07:48:06;;;;;;;1.00;0.32;;;20.90;33.30;;;;;;4975438;28;20019;-75
2021/04/12 07:51:02;;;;;;;0.20;0.10;;;20.90;33.30;;;;;;5005035;28;20030;-75
2021/04/12 07:53:58;;;;;;;0.20;0.20;;;21.00;33.30;;;;;;4994269;28;20037;-75
2021/04/12 07:57:19;;;;;;;0.30;0.13;;;21.00;33.40;;;;;;4990296;28;20026;-76
2021/04/12 08:00:32;;;;;;;0.85;0.15;;;21.00;33.40;;;;;;4961825;28;20034;-76
2021/04/12 08:03:21;;;;;;;0.45;0.30;;;21.10;33.40;;;;;;4951919;28;20039;-76
2021/04/12 08:06:07;;;;;;;0.03;0.00;;;21.10;33.40;;;;;;4939849;28;20050;-76
2021/04/12 08:08:47;;;;;;;0.10;0.10;;;21.00;33.40;;;;;;4912968;29;20040;-76
2021/04/12 08:11:43;;;;;;;0.28;0.25;;;21.00;33.40;;;;;;4912095;29;20048;-76
2021/04/12 08:14:34;;;;;;;0.10;0.10;;;21.00;33.40;;;;;;4881818;29;20044;-73
2021/04/12 08:17:23;;;;;;;0.00;0.00;;;21.10;33.40;;;;;;4883676;29;20048;-73
2021/04/12 08:20:26;;;;;;;1.30;0.40;;;21.10;33.40;;;;;;4882027;29;20075;-72
2021/04/12 08:23:12;;;;;;;0.15;0.15;;;21.10;33.40;;;;;;4863111;29;20080;-72
2021/04/12 08:26:05;;;;;;;0.50;0.15;;;21.20;33.30;;;;;;4885910;29;20552;-72
2021/04/12 08:28:52;;;;;;;0.22;0.22;;;21.20;33.30;;;;;;4885350;29;20045;-73
2021/04/12 08:31:46;;;;;;;0.08;0.00;;;21.20;33.30;;;;;;4887554;29;20061;-73
2021/04/12 08:34:32;;;;;;;0.13;0.13;;;21.20;33.30;;;;;;4892520;29;20117;-69
2021/04/12 08:40:47;;;;;;;0.45;0.20;;;21.20;33.20;;;;;;4902540;29;20535;-69
2021/04/12 08:43:36;;;;;;;0.10;0.10;;;21.30;33.30;;;;;;4915912;29;20037;-70
2021/04/12 08:46:02;;;;;;;0.20;0.20;;;21.30;33.30;;;;;;4935451;28;20054;-70
2021/04/12 08:48:52;;;;;;;0.20;0.20;;;21.30;33.30;;;;;;4950137;28;20207;-71
2021/04/12 08:51:45;;;;;;;0.00;0.00;;;21.30;33.20;;;;;;4950589;28;20087;-71
2021/04/12 08:54:42;;;;;;;0.35;0.22;;;21.40;33.30;;;;;;4964186;28;20414;-69
2021/04/12 08:57:26;;;;;;;0.25;0.05;;;21.40;33.20;;;;;;4990648;28;20026;-70
2021/04/12 09:00:10;;;;;;;0.20;0.20;;;21.40;33.20;;;;;;4993264;28;20115;-81
2021/04/12 09:03:00;;;;;;;0.52;0.45;;;21.50;33.10;;;;;;4992528;28;20033;-80
2021/04/12 09:05:35;;;;;;;0.47;0.47;;;21.50;33.20;;;;;;5002148;28;20031;-69
2021/04/12 09:08:38;;;;;;;0.17;0.13;;;21.50;33.00;;;;;;4986779;28;20099;-71
2021/04/12 09:11:33;;;;;;;0.25;0.15;;;21.50;33.00;;;;;;4988160;28;20473;-70
2021/04/12 09:14:24;;;;;;;0.10;0.10;;;21.60;33.10;;;;;;5005972;28;20044;-70
2021/04/12 09:16:58;;;;;;;0.05;0.05;;;21.60;33.00;;;;;;4978119;28;20050;-72
2021/04/12 09:19:35;;;;;;;0.00;0.00;;;21.60;33.00;;;;;;4982870;28;20035;-72
2021/04/12 09:22:32;;;;;;;0.20;0.10;;;21.60;33.00;;;;;;4997369;28;21735;-72
2021/04/12 09:25:19;;;;;;;0.95;0.30;;;21.70;33.10;;;;;;4981156;28;20038;-72
2021/04/12 09:28:22;;;;;;;0.85;0.20;;;21.70;33.10;;;;;;4999034;28;20366;-71
2021/04/12 09:30:54;;;;;;;0.28;0.13;;;21.70;33.10;;;;;;5006680;28;20029;-71
2021/04/12 09:33:41;;;;;;;0.10;0.10;;;21.70;33.00;;;;;;4983530;28;20023;-71
2021/04/12 09:36:11;;;;;;;1.15;0.30;;;21.70;33.00;;;;;;4986073;28;20037;-71
2021/04/12 09:42:34;;;;;;;1.08;0.15;;;21.70;32.80;;;;;;4981207;28;20049;-77
2021/04/12 09:45:15;;;;;;;1.95;0.28;;;21.70;32.80;;;;;;4983159;28;20034;-78
2021/04/12 09:48:08;;;;;;;0.88;0.35;;;21.70;32.50;;;;;;4987663;28;20403;-72
2021/04/12 09:50:50;;;;;;;1.30;0.30;;;21.70;32.20;;;;;;4985694;28;20105;-72
2021/04/12 09:53:53;;;;;;;0.68;0.25;;;21.70;32.10;;;;;;4951423;28;20117;-72
2021/04/12 09:56:53;;;;;;;0.32;0.30;;;21.70;32.30;;;;;;4990360;28;20109;-72
2021/04/12 09:59:56;;;;;;;0.30;0.17;;;21.80;32.40;;;;;;5011791;28;20065;-72
2021/04/12 10:02:31;;;;;;;0.28;0.22;;;21.90;32.50;;;;;;4980115;28;20038;-71
2021/04/12 10:05:18;;;;;;;0.60;0.15;;;21.90;32.30;;;;;;4991364;28;20034;-72
2021/04/12 10:08:03;;;;;;;1.02;0.30;;;22.00;32.10;;;;;;4991092;28;20054;-78
2021/04/12 10:10:50;;;;;;;0.22;0.10;;;22.00;32.30;;;;;;4978496;28;20646;-78
2021/04/12 10:13:28;;;;;;;1.08;0.15;;;22.00;32.30;;;;;;4984743;28;20101;-78
2021/04/12 10:16:15;;;;;;;0.03;0.00;;;22.10;32.40;;;;;;4963749;28;20042;-78
2021/04/12 10:18:50;;;;;;;0.68;0.22;;;22.10;32.40;;;;;;4976178;28;20514;-72
2021/04/12 10:21:17;;;;;;;0.17;0.17;;;22.10;32.30;;;;;;4978592;28;20487;-77
2021/04/12 10:23:44;;;;;;;0.40;0.40;;;22.10;32.30;;;;;;4984510;28;20045;-77
2021/04/12 10:26:22;;;;;;;0.32;0.28;;;22.10;32.30;;;;;;4993286;28;20113;-75
2021/04/12 10:28:50;;;;;;;0.10;0.10;;;22.10;32.20;;;;;;4991523;28;20506;-77
2021/04/12 10:31:40;;;;;;;0.32;0.32;;;22.10;32.30;;;;;;4991067;28;20046;-77
2021/04/12 10:34:08;;;;;;;0.00;0.00;;;22.20;32.20;;;;;;5001586;28;20551;-75
2021/04/12 10:36:54;;;;;;;0.10;0.10;;;22.20;32.10;;;;;;4995089;28;20026;-76
2021/04/12 10:39:26;;;;;;;;;;;22.20;32.20;;;;;;5007109;28;20383;-72
2021/04/12 10:42:20;;;;;;;0.15;0.10;;;22.20;32.20;;;;;;4995182;28;19953;-72
2021/04/12 10:45:22;;;;;;;0.05;0.05;;;22.20;32.20;;;;;;4987006;28;20045;-71
2021/04/12 10:48:10;;;;;;;0.40;0.25;;;22.20;32.20;;;;;;4927160;29;20068;-77
2021/04/12 10:51:02;;;;;;;0.08;0.08;;;22.20;32.20;;;;;;4901175;29;20131;-76
2021/04/12 10:53:51;;;;;;;0.10;0.10;;;22.20;32.20;;;;;;4917146;29;20067;-76
2021/04/12 10:56:35;;;;;;;1.35;0.38;;;22.20;32.20;;;;;;4902688;29;20071;-72
2021/04/12 10:59:19;;;;;;;0.40;0.40;;;22.20;32.20;;;;;;4917585;29;20132;-72
2021/04/12 11:01:47;;;;;;;0.70;0.50;;;22.10;32.20;;;;;;4915544;29;20036;-72
2021/04/12 11:04:18;;;;;;;2.50;0.45;;;22.10;32.10;;;;;;4903346;29;20035;-72
2021/04/12 11:06:54;;;;;;;2.90;0.60;;;22.10;32.20;;;;;;4923258;29;20579;-72
2021/04/12 11:09:32;;;;;;;0.30;0.20;;;22.00;32.20;;;;;;4908720;29;20156;-72
2021/04/12 11:12:08;;;;;;;0.82;0.47;;;22.00;32.30;;;;;;4919910;29;20036;-72
2021/04/12 11:14:50;;;;;;;0.05;0.00;;;22.00;32.40;;;;;;4923052;29;20072;-72
2021/04/12 11:17:28;;;;;;;0.20;0.20;;;21.90;32.50;;;;;;4924708;29;20029;-72
2021/04/12 11:20:04;;;;;;;0.10;0.10;;;21.90;32.60;;;;;;4910774;29;20552;-72
2021/04/12 11:22:55;;;;;;;0.00;0.00;;;21.80;32.60;;;;;;4982096;28;20042;-72
2021/04/12 11:25:40;;;;;;;0.40;0.10;;;21.80;32.70;;;;;;4976953;28;20372;-72
2021/04/12 11:28:22;;;;;;;0.63;0.55;;;21.80;32.80;;;;;;4977691;28;20029;-72
2021/04/12 11:30:53;;;;;;;0.30;0.30;;;21.80;32.90;;;;;;4973004;28;20033;-73
2021/04/12 11:33:33;;;;;;;0.38;0.20;;;21.80;32.90;;;;;;4974557;28;20168;-73
2021/04/12 11:36:14;;;;;;;0.47;0.40;;;21.80;33.00;;;;;;4988938;28;20018;-73
2021/04/12 11:38:44;;;;;;;1.52;0.20;;;21.90;33.00;;;;;;4984224;28;20035;-73
2021/04/12 11:41:18;;;;;;;0.50;0.20;;;21.90;32.90;;;;;;4959766;28;20027;-74
2021/04/12 11:43:47;;;;;;;1.58;0.50;;;21.90;32.70;;;;;;4974694;28;20030;-73
2021/04/12 11:46:38;;;;;;;0.90;0.40;;;21.90;32.70;;;;;;4957566;28;20023;-72
2021/04/12 11:49:26;;;;;;;0.38;0.30;;;22.00;32.70;;;;;;5002352;28;20061;-72
2021/04/12 11:51:58;;;;;;;1.15;0.32;;;22.00;32.70;;;;;;4963300;28;20041;-72
2021/04/12 11:54:35;;;;;;;1.20;0.30;;;22.00;32.70;;;;;;4969057;28;20409;-72
2021/04/12 11:57:23;;;;;;;0.68;0.30;;;22.10;33.30;;;;;;4975011;28;20495;-72
2021/04/12 12:00:05;;;;;;;0.25;0.25;;;22.10;32.60;;;;;;4976571;28;20555;-72
2021/04/12 12:02:46;;;;;;;0.90;0.22;;;22.20;32.50;;;;;;4976084;28;20502;-72
2021/04/12 12:05:25;;;;;;;0.20;0.20;;;22.20;32.40;;;;;;4964315;28;20134;-76
2021/04/12 12:08:18;;;;;;;0.35;0.35;;;22.30;32.30;;;;;;4974046;28;20023;-76
2021/04/12 12:11:05;;;;;;;1.42;0.43;;;22.30;32.20;;;;;;4981590;28;20412;-76
2021/04/12 12:14:16;;;;;;;0.20;0.20;;;22.30;32.10;;;;;;4992401;28;20102;-76
2021/04/12 12:16:43;;;;;;;0.00;0.00;;;22.20;32.00;;;;;;4948917;29;20070;-76
2021/04/12 12:19:22;;;;;;;0.13;0.13;;;22.20;32.10;;;;;;4946380;28;20027;-76
2021/04/12 12:22:08;;;;;;;0.15;0.15;;;22.20;32.10;;;;;;4931470;29;20471;-76
2021/04/12 12:24:35;;;;;;;;;;;22.10;32.20;;;;;;4951564;29;20043;-76
2021/04/12 12:27:05;;;;;;;0.10;0.10;;;22.10;32.30;;;;;;4936139;29;20005;-77
2021/04/12 12:29:33;;;;;;;0.10;0.10;;;22.10;32.40;;;;;;4952332;29;20035;-76
2021/04/12 12:32:10;;;;;;;0.10;0.10;;;22.00;32.40;;;;;;4947373;29;20031;-76
2021/04/12 12:34:54;;;;;;;0.30;0.15;;;22.00;32.50;;;;;;4927207;29;20154;-76
2021/04/12 12:37:41;;;;;;;0.13;0.13;;;22.00;32.50;;;;;;4945211;29;20435;-76
2021/04/12 12:40:28;;;;;;;0.65;0.40;;;22.00;32.60;;;;;;4949922;28;20136;-76
2021/04/12 12:43:05;;;;;;;0.20;0.15;;;22.00;32.70;;;;;;4951034;28;20635;-76
2021/04/12 12:45:35;;;;;;;0.30;0.20;;;22.10;32.70;;;;;;4952118;29;20495;-76
2021/04/12 12:48:03;;;;;;;1.38;0.38;;;22.10;32.60;;;;;;4943050;29;20233;-76
2021/04/12 12:50:49;;;;;;;0.00;0.00;;;22.10;32.50;;;;;;4950507;29;20082;-72
2021/04/12 12:53:35;;;;;;;0.38;0.38;;;22.20;32.60;;;;;;4949356;28;20042;-72
2021/04/12 12:56:03;;;;;;;0.17;0.17;;;22.20;32.50;;;;;;4948765;28;20134;-72
2021/04/12 12:58:29;;;;;;;0.32;0.20;;;22.20;32.50;;;;;;4949406;28;20025;-72
2021/04/12 13:00:58;;;;;;;0.40;0.30;;;22.20;32.50;;;;;;4965317;28;20490;-72
2021/04/12 13:04:11;;;;;;;3.60;0.20;;;22.20;32.50;;;;;;4980393;28;20014;-72
2021/04/12 13:06:37;;;;;;;1.13;0.30;;;22.20;32.40;;;;;;4911587;29;20040;-76
2021/04/12 13:09:04;;;;;;;0.40;0.40;;;22.20;32.50;;;;;;4916509;29;20038;-77
2021/04/12 13:11:32;;;;;;;1.38;0.05;;;22.20;32.40;;;;;;4947754;29;20043;-77
2021/04/12 13:14:27;;;;;;;0.00;0.00;;;22.20;32.40;;;;;;4920780;29;20051;-77
2021/04/12 13:16:53;;;;;;;0.45;0.40;;;22.20;32.40;;;;;;4911146;29;20603;-77
2021/04/12 13:19:18;;;;;;;0.10;0.10;;;22.20;32.50;;;;;;4893823;29;20052;-76
2021/04/12 13:21:48;;;;;;;0.08;0.08;;;22.30;32.40;;;;;;4928523;29;20035;-77
2021/04/12 13:27:37;;;;;;;0.20;0.20;;;22.30;32.20;;;;;;4914057;29;20068;-76
2021/04/12 13:30:07;;;;;;;0.03;0.03;;;22.40;32.10;;;;;;4947035;28;20039;-77
2021/04/12 13:32:37;;;;;;;0.35;0.00;;;22.40;32.10;;;;;;4911718;29;20595;-77
2021/04/12 13:35:14;;;;;;;0.82;0.30;;;22.40;32.00;;;;;;4927491;29;20040;-77
2021/04/12 13:37:46;;;;;;;0.55;0.10;;;22.40;32.00;;;;;;4926609;29;20059;-77
2021/04/12 13:40:49;;;;;;;0.17;0.10;;;22.40;31.80;;;;;;4928486;29;20496;-77
2021/04/12 13:43:15;;;;;;;0.10;0.10;;;22.40;31.80;;;;;;4962972;28;20525;-77
2021/04/12 13:45:42;;;;;;;0.10;0.10;;;22.40;31.90;;;;;;4968475;28;20117;-77
2021/04/12 13:48:17;;;;;;;4.95;0.38;;;22.40;31.90;;;;;;4973706;28;20084;-76
2021/04/12 13:50:55;;;;;;;0.38;0.35;;;22.40;31.60;;;;;;4985321;28;20023;-77
2021/04/12 13:53:37;;;;;;;0.30;0.25;;;22.40;31.70;;;;;;4982316;28;20034;-77
2021/04/12 13:56:18;;;;;;;0.30;0.20;;;22.30;31.90;;;;;;4977033;28;20069;-77
2021/04/12 13:58:47;;;;;;;0.25;0.25;;;22.30;31.80;;;;;;4964937;28;20104;-77
2021/04/12 14:01:16;;;;;;;0.38;0.32;;;22.30;31.80;;;;;;4987391;28;20043;-78
2021/04/12 14:04:00;;;;;;;0.20;0.20;;;22.30;31.80;;;;;;4994680;28;20116;-77
2021/04/12 14:06:34;;;;;;;0.32;0.10;;;22.30;31.80;;;;;;4994576;28;20063;-77
2021/04/12 14:09:02;;;;;;;1.02;0.40;;;22.30;31.70;;;;;;4977904;28;20035;-77
2021/04/12 14:11:31;;;;;;;0.15;0.08;;;22.30;31.80;;;;;;4987764;28;20029;-77
2021/04/12 14:14:21;;;;;;;0.20;0.20;;;22.30;31.80;;;;;;4977931;28;20022;-77
2021/04/12 14:16:46;;;;;;;0.35;0.20;;;22.20;31.80;;;;;;4983783;28;20517;-77
2021/04/12 14:19:14;;;;;;;0.10;0.10;;;22.20;31.80;;;;;;4963719;28;20038;-76
2021/04/12 14:21:48;;;;;;;0.03;0.03;;;22.20;31.90;;;;;;4962139;28;20422;-76
2021/04/12 14:24:29;;;;;;;1.30;0.33;;;22.10;31.90;;;;;;4977729;28;20393;-77
2021/04/12 14:27:05;;;;;;;0.25;0.25;;;22.10;32.00;;;;;;4983453;28;20019;-76
2021/04/12 14:29:34;;;;;;;0.17;0.17;;;22.10;32.00;;;;;;4978478;28;20097;-76
2021/04/12 14:32:28;;;;;;;0.00;0.00;;;22.00;32.10;;;;;;4978496;28;20474;-76
2021/04/12 14:35:04;;;;;;;0.10;0.10;;;22.00;32.20;;;;;;4976918;28;20070;-76
2021/04/12 14:37:31;;;;;;;0.22;0.20;;;22.00;32.30;;;;;;4964281;28;20030;-76
2021/04/12 14:40:13;;;;;;;1.00;0.43;;;21.90;32.90;;;;;;4963719;28;20050;-76